Time;durP1;ratioP1;P1;durP2;ratioP2;P2;SDS_P1;SDS_P2;PMS_P1;PMS_P2;Temp;Humidity;BMP_temperature;BMP_pressure;BME280_temperature;BME280_humidity;BME280_pressure;Samples;Min_cycle;Max_cycle;Signal;HPM_P1;HPM_P2
2022/04/30 00:00:51;;;;;;;10.70;8.17;;;9.70;78.00;;;;;;5055988;28;20213;-59
2022/04/30 00:03:17;;;;;;;14.53;7.83;;;9.70;79.70;;;;;;5045043;28;20187;-59
2022/04/30 00:05:42;;;;;;;14.57;8.80;;;9.70;81.50;;;;;;5042963;28;20181;-58
2022/04/30 00:08:08;;;;;;;12.17;9.30;;;9.70;80.90;;;;;;5038561;28;21121;-60
2022/04/30 00:10:37;;;;;;;14.97;8.47;;;9.70;80.80;;;;;;5036177;28;20279;-59
2022/04/30 00:13:06;;;;;;;12.37;9.10;;;9.70;81.60;;;;;;5036092;28;20172;-58
2022/04/30 00:15:31;;;;;;;10.70;8.50;;;9.60;81.40;;;;;;5038523;28;20430;-59
2022/04/30 00:17:57;;;;;;;9.90;8.97;;;9.60;81.20;;;;;;5041325;28;20449;-58
2022/04/30 00:20:22;;;;;;;12.07;9.80;;;9.60;81.80;;;;;;5039907;28;20238;-58
2022/04/30 00:22:48;;;;;;;14.30;7.83;;;9.60;82.20;;;;;;5039641;28;20174;-59
2022/04/30 00:25:14;;;;;;;12.07;9.53;;;9.60;82.40;;;;;;5038342;28;20172;-58
2022/04/30 00:27:40;;;;;;;11.07;7.93;;;9.60;82.60;;;;;;5038545;28;20245;-58
2022/04/30 00:30:06;;;;;;;9.50;8.47;;;9.60;82.60;;;;;;5040614;28;20985;-59
2022/04/30 00:32:32;;;;;;;13.87;8.53;;;9.60;85.50;;;;;;5041324;28;20175;-58
2022/04/30 00:34:57;;;;;;;12.23;9.00;;;9.50;84.80;;;;;;5039771;28;20421;-59
2022/04/30 00:37:23;;;;;;;15.70;9.00;;;9.50;85.50;;;;;;5038217;28;20193;-59
2022/04/30 00:39:49;;;;;;;12.60;9.40;;;9.50;85.40;;;;;;5042896;28;20207;-59
2022/04/30 00:42:15;;;;;;;12.27;8.80;;;9.50;84.70;;;;;;5038371;28;20261;-59
2022/04/30 00:44:43;;;;;;;12.30;9.07;;;9.50;87.90;;;;;;5040506;28;20170;-59
2022/04/30 00:47:14;;;;;;;9.83;8.80;;;9.60;89.70;;;;;;5041325;28;20448;-58
2022/04/30 00:49:40;;;;;;;13.80;8.87;;;9.60;90.00;;;;;;5034130;28;20496;-58
2022/04/30 00:52:07;;;;;;;10.83;8.73;;;9.60;90.00;;;;;;5040606;28;20871;-58
2022/04/30 00:54:35;;;;;;;11.50;9.20;;;9.60;90.40;;;;;;5036683;28;20191;-58
2022/04/30 00:57:03;;;;;;;13.07;9.30;;;9.60;90.50;;;;;;5044096;28;20487;-58
2022/04/30 00:59:31;;;;;;;10.73;8.70;;;9.70;90.20;;;;;;5036885;28;20547;-58
2022/04/30 01:01:59;;;;;;;11.67;9.60;;;9.70;90.70;;;;;;5041769;28;20440;-58
2022/04/30 01:04:26;;;;;;;11.87;9.67;;;9.70;90.10;;;;;;5040929;28;20464;-58
2022/04/30 01:07:07;;;;;;;11.63;8.83;;;9.70;89.00;;;;;;5041393;28;20464;-59
2022/04/30 01:09:36;;;;;;;13.37;8.60;;;9.70;88.60;;;;;;5035206;28;20453;-59
2022/04/30 01:12:10;;;;;;;10.67;9.20;;;9.70;87.40;;;;;;5040859;28;21835;-60
2022/04/30 01:14:40;;;;;;;20.23;9.27;;;9.70;88.10;;;;;;5039665;28;20462;-59
2022/04/30 01:17:08;;;;;;;13.20;9.93;;;9.70;87.30;;;;;;5041468;28;20479;-59
2022/04/30 01:19:37;;;;;;;13.60;9.50;;;9.70;86.40;;;;;;5037096;28;20484;-59
2022/04/30 01:22:27;;;;;;;10.50;8.93;;;9.60;87.70;;;;;;5038136;28;20429;-59
2022/04/30 01:24:58;;;;;;;16.70;9.50;;;9.60;90.30;;;;;;5038582;28;20548;-59
2022/04/30 01:27:28;;;;;;;13.13;10.60;;;9.60;91.20;;;;;;5039600;28;20434;-59
2022/04/30 01:29:55;;;;;;;12.60;9.50;;;9.60;90.70;;;;;;5035889;28;20454;-58
2022/04/30 01:38:01;;;;;;;16.30;10.17;;;9.60;92.00;;;;;;5039280;28;20516;-59
2022/04/30 01:40:28;;;;;;;15.30;9.60;;;9.60;93.30;;;;;;5039044;28;20878;-59
2022/04/30 01:42:58;;;;;;;11.57;9.43;;;9.60;93.30;;;;;;5037319;28;20687;-59
2022/04/30 01:45:25;;;;;;;14.80;9.60;;;9.60;92.20;;;;;;5034707;28;20470;-59
2022/04/30 01:47:52;;;;;;;11.60;8.83;;;9.60;91.60;;;;;;5036572;28;20525;-58
2022/04/30 01:50:18;;;;;;;12.17;10.33;;;9.50;92.90;;;;;;5034943;28;20494;-59
2022/04/30 01:52:44;;;;;;;14.57;10.80;;;9.50;93.30;;;;;;5038946;28;20858;-58
2022/04/30 01:55:10;;;;;;;15.60;10.10;;;9.50;93.60;;;;;;5037928;28;20442;-59
2022/04/30 01:57:39;;;;;;;16.10;11.40;;;9.50;93.60;;;;;;5037420;28;20195;-59
2022/04/30 02:00:08;;;;;;;13.33;10.10;;;9.50;94.50;;;;;;5031183;28;20441;-59
2022/04/30 02:02:35;;;;;;;14.27;10.67;;;9.50;94.00;;;;;;5042805;28;20446;-59
2022/04/30 02:05:04;;;;;;;18.00;11.07;;;9.40;94.60;;;;;;5037022;28;20458;-59
2022/04/30 02:07:32;;;;;;;14.73;11.00;;;9.40;95.20;;;;;;5037754;28;20428;-59
2022/04/30 02:09:59;;;;;;;14.37;11.43;;;9.40;97.20;;;;;;5042361;28;20456;-58
2022/04/30 02:12:31;;;;;;;15.20;11.20;;;9.40;99.90;;;;;;5041225;28;20809;-60
2022/04/30 02:14:57;;;;;;;14.67;12.03;;;9.40;99.90;;;;;;5036748;28;20442;-58
2022/04/30 02:17:27;;;;;;;16.53;11.93;;;9.40;99.90;;;;;;5034844;28;20434;-58
2022/04/30 02:22:40;;;;;;;12.87;10.53;;;9.40;99.90;;;;;;5036018;28;20457;-59
2022/04/30 02:25:09;;;;;;;13.00;9.87;;;9.40;99.90;;;;;;5034113;28;20489;-58
2022/04/30 02:27:39;;;;;;;12.40;10.20;;;9.40;99.90;;;;;;5033877;28;20506;-59
2022/04/30 02:30:14;;;;;;;16.10;11.37;;;9.30;99.90;;;;;;5036340;28;20480;-58
2022/04/30 02:32:48;;;;;;;13.97;11.40;;;9.30;99.90;;;;;;5036879;28;20989;-59
2022/04/30 02:35:21;;;;;;;16.43;11.73;;;9.30;99.90;;;;;;5034808;28;20988;-59
2022/04/30 02:37:52;;;;;;;16.00;11.60;;;9.20;99.90;;;;;;5037983;28;20418;-59
2022/04/30 02:40:20;;;;;;;15.43;12.27;;;9.20;99.90;;;;;;5038248;28;20453;-58
2022/04/30 02:42:46;;;;;;;19.90;12.63;;;9.20;99.90;;;;;;5036369;28;20429;-59
2022/04/30 02:45:13;;;;;;;16.33;13.20;;;9.20;99.90;;;;;;5036281;28;20501;-59
2022/04/30 02:47:41;;;;;;;16.40;12.90;;;9.20;99.90;;;;;;5036985;28;20429;-58
2022/04/30 02:50:11;;;;;;;19.13;12.90;;;9.30;99.90;;;;;;5037766;28;20454;-58
2022/04/30 02:52:38;;;;;;;17.63;12.43;;;9.30;99.90;;;;;;5034238;28;20515;-59
2022/04/30 02:55:05;;;;;;;25.43;12.87;;;9.30;99.90;;;;;;5035805;28;20421;-58
2022/04/30 03:00:40;;;;;;;16.00;11.23;;;9.40;99.90;;;;;;5035254;28;20515;-58
2022/04/30 03:03:08;;;;;;;17.83;13.77;;;9.40;99.90;;;;;;5036390;28;20518;-58
2022/04/30 03:05:35;;;;;;;17.50;11.57;;;9.40;99.90;;;;;;5036819;28;20413;-58
2022/04/30 03:08:04;;;;;;;19.30;11.43;;;9.40;99.90;;;;;;5036348;28;20918;-59
2022/04/30 03:10:30;;;;;;;17.97;13.13;;;9.40;99.90;;;;;;5036236;28;20535;-59
2022/04/30 03:12:55;;;;;;;15.57;11.47;;;9.50;99.90;;;;;;5036508;28;21056;-60
2022/04/30 03:15:22;;;;;;;18.80;12.20;;;9.50;99.90;;;;;;5035512;28;20203;-59
2022/04/30 03:23:18;;;;;;;16.70;12.93;;;9.50;99.90;;;;;;5034086;28;20976;-58
2022/04/30 03:25:44;;;;;;;17.50;11.33;;;9.60;99.90;;;;;;5037235;28;20454;-59
2022/04/30 03:28:10;;;;;;;16.53;13.27;;;9.60;99.90;;;;;;5036361;28;20175;-58
2022/04/30 03:30:36;;;;;;;14.30;12.10;;;9.60;99.90;;;;;;5036951;28;20515;-59
2022/04/30 03:33:02;;;;;;;15.63;12.73;;;9.60;99.90;;;;;;5037747;28;20443;-59
2022/04/30 03:35:28;;;;;;;19.93;13.80;;;9.70;99.90;;;;;;5031574;28;20189;-58
2022/04/30 03:37:54;;;;;;;17.00;12.33;;;9.60;99.90;;;;;;5034453;28;20188;-59
2022/04/30 03:40:22;;;;;;;18.43;12.00;;;9.60;99.90;;;;;;5033778;28;20819;-59
2022/04/30 03:42:48;;;;;;;14.43;11.30;;;9.70;99.90;;;;;;5033663;28;20183;-60
2022/04/30 03:45:14;;;;;;;15.53;11.27;;;9.70;99.90;;;;;;5034006;28;20485;-60
2022/04/30 03:47:40;;;;;;;17.00;12.57;;;9.70;99.90;;;;;;5036834;28;20454;-59
2022/04/30 03:50:06;;;;;;;16.90;12.37;;;9.80;99.90;;;;;;5031903;28;20714;-60
2022/04/30 03:52:32;;;;;;;21.77;15.00;;;9.80;99.90;;;;;;5032625;28;20175;-58
2022/04/30 03:54:58;;;;;;;18.10;12.93;;;9.80;99.90;;;;;;5034815;28;20856;-59
2022/04/30 03:57:25;;;;;;;18.93;13.87;;;9.80;99.90;;;;;;5032996;28;20439;-58
2022/04/30 03:59:51;;;;;;;22.20;14.60;;;9.80;99.90;;;;;;5033573;28;20468;-59
2022/04/30 04:02:18;;;;;;;19.90;14.03;;;9.80;99.90;;;;;;5035931;28;20434;-59
2022/04/30 04:04:44;;;;;;;20.77;15.17;;;9.90;99.90;;;;;;5035663;28;20175;-59
2022/04/30 04:07:10;;;;;;;22.83;14.90;;;9.90;99.90;;;;;;5033064;28;20489;-58
2022/04/30 04:09:36;;;;;;;20.90;14.33;;;9.90;99.90;;;;;;5032696;28;20457;-58
2022/04/30 04:12:02;;;;;;;17.73;13.87;;;9.90;99.90;;;;;;5037652;28;20437;-59
2022/04/30 04:19:56;;;;;;;26.07;15.50;;;9.90;99.90;;;;;;5034893;28;20558;-58
2022/04/30 04:22:22;;;;;;;25.70;16.40;;;9.90;99.90;;;;;;5031929;28;20645;-58
2022/04/30 04:27:31;;;;;;;27.33;18.30;;;10.00;99.90;;;;;;5037480;28;20601;-59
2022/04/30 04:29:57;;;;;;;26.83;16.97;;;10.00;99.90;;;;;;5039040;28;20953;-59
2022/04/30 04:32:24;;;;;;;26.13;17.10;;;10.00;99.90;;;;;;5039096;28;20196;-59
2022/04/30 04:34:50;;;;;;;29.40;17.73;;;10.00;99.90;;;;;;5034092;28;20183;-59
2022/04/30 04:37:15;;;;;;;28.23;17.37;;;10.00;99.90;;;;;;5037295;28;20503;-60
2022/04/30 04:39:42;;;;;;;24.40;16.97;;;10.00;99.90;;;;;;5037860;28;20835;-59
2022/04/30 04:42:07;;;;;;;33.57;19.17;;;10.00;99.90;;;;;;5036602;28;20175;-59
2022/04/30 04:44:34;;;;;;;39.37;20.10;;;10.00;99.90;;;;;;5036449;28;20433;-59
2022/04/30 04:47:00;;;;;;;34.40;19.00;;;10.00;99.90;;;;;;5036739;28;20182;-58
2022/04/30 04:49:27;;;;;;;32.90;19.50;;;10.00;99.90;;;;;;5036138;28;20453;-59
2022/04/30 04:51:53;;;;;;;32.90;19.33;;;10.00;99.90;;;;;;5039439;28;21011;-59
2022/04/30 04:54:18;;;;;;;31.20;19.57;;;10.00;99.90;;;;;;5036187;28;20445;-58
2022/04/30 04:56:44;;;;;;;31.23;20.70;;;10.00;99.90;;;;;;5033833;28;20430;-59
2022/04/30 04:59:10;;;;;;;27.97;19.63;;;10.00;99.90;;;;;;5036109;28;20199;-59
2022/04/30 05:01:36;;;;;;;32.60;20.00;;;10.00;99.90;;;;;;5035792;28;20203;-59
2022/04/30 05:04:02;;;;;;;30.37;19.50;;;10.00;99.90;;;;;;5037355;28;20194;-58
2022/04/30 05:06:28;;;;;;;30.67;19.20;;;9.90;99.90;;;;;;5032433;28;20427;-59
2022/04/30 05:08:54;;;;;;;35.90;21.50;;;9.90;99.90;;;;;;5035223;28;20413;-59
2022/04/30 05:11:19;;;;;;;29.50;18.23;;;9.90;99.90;;;;;;5039604;28;20265;-58
2022/04/30 05:13:45;;;;;;;31.97;20.40;;;9.90;99.90;;;;;;5035223;28;20180;-59
2022/04/30 05:16:11;;;;;;;30.73;19.60;;;9.90;99.90;;;;;;5036297;28;20180;-61
2022/04/30 05:18:37;;;;;;;32.33;20.60;;;9.90;99.90;;;;;;5035918;28;20679;-59
2022/04/30 05:21:03;;;;;;;35.53;20.10;;;9.80;99.90;;;;;;5035444;28;20580;-59
2022/04/30 05:23:28;;;;;;;32.20;21.30;;;9.80;99.90;;;;;;5040129;28;20176;-59
2022/04/30 05:25:54;;;;;;;28.97;18.10;;;9.80;99.90;;;;;;5034935;28;20290;-58
2022/04/30 05:28:20;;;;;;;32.93;19.43;;;9.80;99.90;;;;;;5037406;28;20567;-59
2022/04/30 05:30:46;;;;;;;30.00;20.00;;;9.80;99.90;;;;;;5033726;28;20253;-59
2022/04/30 05:33:12;;;;;;;30.93;21.10;;;9.80;99.90;;;;;;5037430;28;20885;-58
2022/04/30 05:35:37;;;;;;;39.00;21.10;;;9.80;99.90;;;;;;5037669;28;20175;-58
2022/04/30 05:38:03;;;;;;;31.47;20.10;;;9.80;99.90;;;;;;5037681;28;20730;-58
2022/04/30 05:40:29;;;;;;;28.40;20.43;;;9.70;99.90;;;;;;5034271;28;20200;-59
2022/04/30 05:42:54;;;;;;;33.40;20.70;;;9.70;99.90;;;;;;5036381;28;20182;-58
2022/04/30 05:45:20;;;;;;;28.80;19.53;;;9.70;99.90;;;;;;5035901;28;20639;-59
2022/04/30 05:47:45;;;;;;;33.50;21.43;;;9.70;99.90;;;;;;5034870;28;20175;-59
2022/04/30 05:50:11;;;;;;;31.97;20.80;;;9.70;99.90;;;;;;5035333;28;20218;-59
2022/04/30 05:52:37;;;;;;;33.37;22.47;;;9.70;99.90;;;;;;5036494;28;20248;-59
2022/04/30 05:55:03;;;;;;;33.23;20.60;;;9.70;99.90;;;;;;5034250;28;20803;-59
2022/04/30 05:57:30;;;;;;;33.70;20.23;;;9.60;99.90;;;;;;5036980;28;20428;-59
2022/04/30 05:59:55;;;;;;;33.60;21.13;;;9.60;99.90;;;;;;5039581;28;20973;-59
2022/04/30 06:02:21;;;;;;;31.70;20.77;;;9.60;99.90;;;;;;5046691;28;20432;-59
2022/04/30 06:04:47;;;;;;;32.33;21.37;;;9.60;99.90;;;;;;5043208;28;20888;-59
2022/04/30 06:07:13;;;;;;;29.63;20.30;;;9.60;99.90;;;;;;5035140;28;20442;-59
2022/04/30 06:09:39;;;;;;;31.33;20.27;;;9.60;99.90;;;;;;5046070;28;20572;-59
2022/04/30 06:12:05;;;;;;;31.77;20.57;;;9.60;99.90;;;;;;5047274;28;20246;-59
2022/04/30 06:14:31;;;;;;;33.43;21.23;;;9.60;99.90;;;;;;5033457;28;20183;-59
2022/04/30 06:16:58;;;;;;;30.90;20.93;;;9.60;99.90;;;;;;5038827;28;20444;-59
2022/04/30 06:19:23;;;;;;;31.40;21.20;;;9.60;99.90;;;;;;5049288;28;20233;-59
2022/04/30 06:21:49;;;;;;;38.17;20.83;;;9.60;99.90;;;;;;5054268;28;20921;-59
2022/04/30 06:24:15;;;;;;;31.43;20.63;;;9.60;99.90;;;;;;5045160;28;20556;-59
2022/04/30 06:26:41;;;;;;;34.57;22.23;;;9.60;99.90;;;;;;5044825;28;20663;-59
2022/04/30 06:29:07;;;;;;;33.47;22.90;;;9.60;99.90;;;;;;5043830;28;20434;-59
2022/04/30 06:31:33;;;;;;;33.60;20.20;;;9.60;99.90;;;;;;5032232;28;20203;-56
2022/04/30 06:33:58;;;;;;;36.00;21.53;;;9.60;99.90;;;;;;5033346;28;20194;-55
2022/04/30 06:36:24;;;;;;;39.00;20.43;;;9.60;99.90;;;;;;5036084;28;20176;-54
2022/04/30 06:38:50;;;;;;;35.53;22.20;;;9.70;99.90;;;;;;5039910;28;20297;-55
2022/04/30 06:41:15;;;;;;;34.43;21.40;;;9.70;99.90;;;;;;5035591;28;20204;-54
2022/04/30 06:43:41;;;;;;;35.07;20.93;;;9.70;99.90;;;;;;5037501;28;20171;-55
2022/04/30 06:46:07;;;;;;;31.47;19.93;;;9.70;99.90;;;;;;5030930;28;20613;-55
2022/04/30 06:48:33;;;;;;;32.87;20.40;;;9.70;99.90;;;;;;5035036;28;20430;-56
2022/04/30 06:51:00;;;;;;;33.30;20.07;;;9.80;99.90;;;;;;5034418;28;20207;-60
2022/04/30 06:58:56;;;;;;;35.80;20.60;;;9.80;99.90;;;;;;5038375;28;20456;-59
2022/04/30 07:01:29;;;;;;;29.27;19.30;;;9.80;99.90;;;;;;5031580;28;20473;-60
2022/04/30 07:04:01;;;;;;;32.33;20.00;;;9.80;99.90;;;;;;5038790;28;20480;-59
2022/04/30 07:06:29;;;;;;;29.90;20.13;;;9.90;99.90;;;;;;5040646;28;21116;-59
2022/04/30 07:08:55;;;;;;;30.00;19.07;;;9.90;99.90;;;;;;5052997;28;20443;-56
2022/04/30 07:11:20;;;;;;;27.60;19.23;;;9.90;99.90;;;;;;5034760;28;20472;-58
2022/04/30 07:13:46;;;;;;;32.50;19.37;;;9.90;99.90;;;;;;5028894;28;20183;-57
2022/04/30 07:16:12;;;;;;;28.20;19.13;;;9.90;99.90;;;;;;5032216;28;20175;-57
2022/04/30 07:18:38;;;;;;;26.90;18.37;;;10.00;99.90;;;;;;5034937;28;20290;-56
2022/04/30 07:21:04;;;;;;;27.90;19.30;;;10.00;99.90;;;;;;5032295;28;20200;-57
2022/04/30 07:23:30;;;;;;;30.10;18.80;;;10.10;99.90;;;;;;5033794;28;20187;-57
2022/04/30 07:25:56;;;;;;;30.23;18.57;;;10.10;99.90;;;;;;5031575;28;20433;-59
2022/04/30 07:28:26;;;;;;;29.13;18.13;;;10.20;99.90;;;;;;5035234;28;20449;-58
2022/04/30 07:30:52;;;;;;;33.50;19.47;;;10.30;99.90;;;;;;5034735;28;20195;-59
2022/04/30 07:33:18;;;;;;;30.63;21.13;;;10.30;99.90;;;;;;5032304;28;20447;-59
2022/04/30 07:35:44;;;;;;;29.00;18.27;;;10.40;99.90;;;;;;5032328;28;20502;-59
2022/04/30 07:38:09;;;;;;;34.17;21.03;;;10.50;99.90;;;;;;5034584;28;20257;-57
2022/04/30 07:40:38;;;;;;;30.00;19.00;;;10.60;99.90;;;;;;5034636;28;20273;-58
2022/04/30 07:43:04;;;;;;;32.80;20.83;;;10.70;99.90;;;;;;5036687;28;20209;-59
2022/04/30 07:45:30;;;;;;;35.87;21.60;;;10.80;99.90;;;;;;5033040;28;20429;-58
2022/04/30 07:47:56;;;;;;;40.73;20.23;;;10.80;99.90;;;;;;5034107;28;20257;-60
2022/04/30 07:50:23;;;;;;;29.00;18.30;;;10.90;99.90;;;;;;5031100;28;20246;-59
2022/04/30 07:52:49;;;;;;;27.47;18.03;;;11.00;99.90;;;;;;5030195;28;20184;-56
2022/04/30 07:55:15;;;;;;;27.00;18.00;;;11.00;99.90;;;;;;5034135;28;21413;-60
2022/04/30 07:57:41;;;;;;;27.80;19.00;;;11.00;99.90;;;;;;5035226;28;20595;-59
2022/04/30 08:00:07;;;;;;;29.27;18.47;;;11.10;99.90;;;;;;5033274;28;20514;-58
2022/04/30 08:02:33;;;;;;;23.63;17.40;;;11.20;99.90;;;;;;5043339;28;20171;-58
2022/04/30 08:05:01;;;;;;;26.00;17.73;;;11.20;99.90;;;;;;5042325;28;20437;-60
2022/04/30 08:07:27;;;;;;;25.17;17.07;;;11.30;99.90;;;;;;5034900;28;20179;-59
2022/04/30 08:09:52;;;;;;;27.20;18.60;;;11.30;99.90;;;;;;5037909;28;20471;-60
2022/04/30 08:12:18;;;;;;;24.13;15.97;;;11.40;99.90;;;;;;5044821;28;20213;-59
2022/04/30 08:14:44;;;;;;;26.13;15.83;;;11.40;99.90;;;;;;5043494;28;20198;-59
2022/04/30 08:17:13;;;;;;;24.00;17.80;;;11.40;99.90;;;;;;5038222;28;20484;-59
2022/04/30 08:19:39;;;;;;;23.20;16.80;;;11.40;99.90;;;;;;5045751;28;20312;-59
2022/04/30 08:22:04;;;;;;;27.60;17.27;;;11.30;99.90;;;;;;5055790;28;20465;-59
2022/04/30 08:24:30;;;;;;;23.30;17.30;;;11.30;99.90;;;;;;5040242;28;20172;-60
2022/04/30 08:26:56;;;;;;;26.67;18.47;;;11.30;99.90;;;;;;5047237;28;20175;-59
2022/04/30 08:29:22;;;;;;;28.73;17.47;;;11.40;99.90;;;;;;5050230;28;20183;-59
2022/04/30 08:31:48;;;;;;;27.67;18.10;;;11.50;99.90;;;;;;5041930;28;20433;-59
2022/04/30 08:34:13;;;;;;;25.77;16.70;;;11.70;99.90;;;;;;5042168;28;20244;-59
2022/04/30 08:36:39;;;;;;;22.13;16.23;;;11.90;99.90;;;;;;5051655;28;20698;-59
2022/04/30 08:39:05;;;;;;;22.47;16.57;;;12.10;99.90;;;;;;5049047;28;20203;-58
2022/04/30 08:41:30;;;;;;;22.70;15.67;;;12.40;99.90;;;;;;5039416;28;20207;-59
2022/04/30 08:43:56;;;;;;;22.07;16.53;;;12.60;99.90;;;;;;5039400;28;20278;-59
2022/04/30 08:46:22;;;;;;;21.30;16.60;;;12.70;99.90;;;;;;5046938;28;20187;-59
2022/04/30 08:48:48;;;;;;;23.30;15.80;;;12.80;99.90;;;;;;5059122;28;20186;-59
2022/04/30 08:51:15;;;;;;;22.50;16.10;;;12.80;99.90;;;;;;5036654;28;20226;-59
2022/04/30 08:53:42;;;;;;;20.40;14.73;;;12.70;99.90;;;;;;5045470;28;20520;-59
2022/04/30 08:56:08;;;;;;;24.40;17.00;;;12.60;99.90;;;;;;5033587;28;20435;-59
2022/04/30 08:58:34;;;;;;;21.70;14.60;;;12.60;99.90;;;;;;5049003;28;20532;-59
2022/04/30 09:01:02;;;;;;;19.30;15.10;;;12.50;99.90;;;;;;5039314;28;20446;-59
2022/04/30 09:03:37;;;;;;;19.30;15.27;;;12.50;99.90;;;;;;5052132;28;20198;-60
2022/04/30 09:06:06;;;;;;;20.07;15.03;;;12.50;99.90;;;;;;5065173;28;20488;-61
2022/04/30 09:08:32;;;;;;;23.37;16.77;;;12.60;99.90;;;;;;5073210;28;20451;-67
2022/04/30 09:11:08;;;;;;;20.37;15.30;;;12.80;99.90;;;;;;5047558;28;20560;-59
2022/04/30 09:13:45;;;;;;;20.10;14.83;;;13.10;99.90;;;;;;5042151;28;20465;-59
2022/04/30 09:16:37;;;;;;;22.47;14.30;;;13.50;99.90;;;;;;5041255;28;20437;-59
2022/04/30 09:19:03;;;;;;;19.23;12.37;;;13.90;99.30;;;;;;5040096;28;20537;-59
2022/04/30 09:21:29;;;;;;;18.70;13.30;;;14.20;95.30;;;;;;5035765;28;20454;-59
2022/04/30 09:24:05;;;;;;;15.80;13.00;;;14.40;91.30;;;;;;5048881;28;20456;-59
2022/04/30 09:26:43;;;;;;;15.47;12.27;;;14.40;87.20;;;;;;5050929;28;20518;-59
2022/04/30 09:29:24;;;;;;;16.80;11.70;;;14.20;79.40;;;;;;5044360;28;20433;-59
2022/04/30 09:31:53;;;;;;;19.13;13.00;;;14.00;74.50;;;;;;5049064;28;20422;-59
2022/04/30 09:39:51;;;;;;;18.37;12.90;;;13.50;88.10;;;;;;5044798;28;20530;-57
2022/04/30 09:42:17;;;;;;;15.80;12.40;;;13.50;87.90;;;;;;5033604;28;20957;-55
2022/04/30 09:44:43;;;;;;;18.43;11.90;;;13.40;83.10;;;;;;5044514;28;20432;-54
2022/04/30 09:47:09;;;;;;;14.17;11.70;;;13.50;85.00;;;;;;5036836;28;20426;-55
2022/04/30 09:55:07;;;;;;;20.00;12.83;;;13.70;84.10;;;;;;5035219;28;20452;-54
2022/04/30 09:57:35;;;;;;;15.67;12.60;;;14.00;71.60;;;;;;5035898;28;20442;-56
2022/04/30 10:00:03;;;;;;;19.60;12.00;;;14.20;74.40;;;;;;5031747;28;20461;-53
2022/04/30 10:02:31;;;;;;;15.87;12.07;;;14.50;71.80;;;;;;5032504;28;20459;-54
2022/04/30 10:04:57;;;;;;;16.90;12.53;;;14.70;72.10;;;;;;5043817;28;20432;-57
2022/04/30 10:07:26;;;;;;;15.87;11.63;;;14.90;65.30;;;;;;5040752;28;20431;-54
2022/04/30 10:10:10;;;;;;;19.43;12.80;;;15.20;64.20;;;;;;5041169;28;20450;-55
2022/04/30 10:12:46;;;;;;;14.63;10.80;;;15.30;65.00;;;;;;5039428;28;20472;-55
2022/04/30 10:15:39;;;;;;;16.63;12.20;;;15.30;61.70;;;;;;5047327;28;20448;-54
2022/04/30 10:18:08;;;;;;;14.50;11.50;;;15.20;61.40;;;;;;5043072;28;20426;-55
2022/04/30 10:20:34;;;;;;;14.70;11.00;;;15.10;59.20;;;;;;5035372;28;20472;-54
2022/04/30 10:23:01;;;;;;;15.70;10.80;;;14.90;58.10;;;;;;5034171;28;21025;-54
2022/04/30 10:25:32;;;;;;;14.83;11.60;;;14.90;59.30;;;;;;5033320;28;22157;-52
2022/04/30 10:27:58;;;;;;;14.03;10.70;;;15.00;58.30;;;;;;5035471;28;20430;-56
2022/04/30 10:30:27;;;;;;;14.27;10.53;;;14.90;56.00;;;;;;5040940;28;20484;-57
2022/04/30 10:33:06;;;;;;;14.63;11.17;;;14.90;56.20;;;;;;5043271;28;20173;-62
2022/04/30 10:35:45;;;;;;;12.93;10.20;;;14.80;57.40;;;;;;5038050;28;20431;-60
2022/04/30 10:38:14;;;;;;;15.07;11.33;;;14.80;58.60;;;;;;5038812;28;21405;-59
2022/04/30 10:40:44;;;;;;;12.80;10.83;;;14.70;57.90;;;;;;5045769;28;20450;-59
2022/04/30 10:43:15;;;;;;;14.50;11.23;;;14.60;58.00;;;;;;5044910;28;20432;-59
2022/04/30 10:45:40;;;;;;;14.10;10.17;;;14.50;57.20;;;;;;5044074;28;20458;-59
2022/04/30 10:48:06;;;;;;;15.17;9.70;;;14.40;57.40;;;;;;5048284;28;20405;-60
2022/04/30 10:50:33;;;;;;;13.20;10.57;;;14.20;57.20;;;;;;5042755;28;20711;-60
2022/04/30 10:53:00;;;;;;;14.80;11.03;;;14.40;58.50;;;;;;5034091;28;20492;-59
2022/04/30 10:55:26;;;;;;;15.93;11.00;;;14.50;57.20;;;;;;5047969;28;20820;-59
2022/04/30 10:57:53;;;;;;;13.27;10.00;;;14.60;56.60;;;;;;5047137;28;20430;-59
2022/04/30 11:00:21;;;;;;;11.57;10.37;;;14.60;57.10;;;;;;5033213;28;20830;-59
2022/04/30 11:02:47;;;;;;;15.17;10.30;;;14.80;58.00;;;;;;5039753;28;20428;-59
2022/04/30 11:05:23;;;;;;;15.57;10.60;;;14.90;58.10;;;;;;5047586;28;20440;-59
2022/04/30 11:07:49;;;;;;;13.90;10.00;;;14.90;57.70;;;;;;5046830;28;20433;-60
2022/04/30 11:10:15;;;;;;;12.60;9.93;;;15.00;56.40;;;;;;5046112;28;20453;-60
2022/04/30 11:12:41;;;;;;;12.00;9.30;;;15.00;55.30;;;;;;5045610;28;20520;-58
2022/04/30 11:15:10;;;;;;;10.90;8.57;;;15.00;55.30;;;;;;5040660;28;20790;-57
2022/04/30 11:17:44;;;;;;;13.73;9.80;;;15.00;54.80;;;;;;5037186;28;20438;-60
2022/04/30 11:20:10;;;;;;;18.33;9.93;;;14.90;53.30;;;;;;5042767;28;20469;-60
2022/04/30 11:22:36;;;;;;;12.73;9.63;;;14.70;52.80;;;;;;5038333;28;20446;-60
2022/04/30 11:25:02;;;;;;;12.23;9.27;;;14.50;53.40;;;;;;5040214;28;20433;-61
2022/04/30 11:27:31;;;;;;;10.33;8.60;;;14.30;54.90;;;;;;5044394;28;20180;-61
2022/04/30 11:29:57;;;;;;;15.57;12.33;;;14.20;55.60;;;;;;5041838;28;20202;-61
2022/04/30 11:32:27;;;;;;;20.10;13.87;;;14.10;56.40;;;;;;5038029;28;20442;-56
2022/04/30 11:34:54;;;;;;;18.37;14.37;;;14.10;58.50;;;;;;5040455;28;20546;-60
2022/04/30 11:37:21;;;;;;;19.37;14.07;;;14.00;62.00;;;;;;5037463;28;20895;-61
2022/04/30 11:39:46;;;;;;;23.53;15.43;;;14.00;64.80;;;;;;5049435;28;20504;-59
2022/04/30 11:42:12;;;;;;;23.73;15.83;;;13.90;68.50;;;;;;5037735;28;20433;-60
2022/04/30 11:44:38;;;;;;;25.50;15.33;;;13.80;73.50;;;;;;5044936;28;20175;-61
2022/04/30 11:47:07;;;;;;;17.50;14.17;;;13.60;78.20;;;;;;5035265;28;20179;-61
2022/04/30 11:49:33;;;;;;;20.97;14.43;;;13.40;80.50;;;;;;5039219;28;20234;-60
2022/04/30 11:52:00;;;;;;;13.47;10.13;;;13.10;85.00;;;;;;5044533;28;20498;-60
2022/04/30 11:54:28;;;;;;;14.70;11.07;;;12.80;79.00;;;;;;5047545;28;20435;-61
2022/04/30 11:56:56;;;;;;;12.40;8.00;;;12.60;91.60;;;;;;5044288;28;20441;-60
2022/04/30 11:59:39;;;;;;;18.90;9.10;;;12.40;91.30;;;;;;5046630;28;20661;-60
2022/04/30 12:02:11;;;;;;;14.03;8.50;;;12.00;93.10;;;;;;5037968;28;20457;-60
2022/04/30 12:04:41;;;;;;;13.00;9.23;;;11.70;93.30;;;;;;5030487;28;21001;-60
2022/04/30 12:07:09;;;;;;;17.17;9.30;;;11.40;96.50;;;;;;5051339;28;20468;-61
2022/04/30 12:09:37;;;;;;;14.17;9.53;;;11.30;99.90;;;;;;5045368;28;20425;-61
2022/04/30 12:12:21;;;;;;;13.83;9.63;;;11.10;99.90;;;;;;5042716;28;20958;-60
2022/04/30 12:14:49;;;;;;;13.57;11.60;;;11.10;99.90;;;;;;5043246;28;20465;-60
2022/04/30 12:17:16;;;;;;;14.63;11.70;;;11.10;99.90;;;;;;5039792;28;20596;-60
2022/04/30 12:25:32;;;;;;;15.50;10.10;;;11.60;99.90;;;;;;5014995;28;20426;-60
2022/04/30 12:28:02;;;;;;;20.43;10.80;;;11.80;99.90;;;;;;5034866;28;21017;-61
2022/04/30 12:30:28;;;;;;;10.90;8.87;;;11.80;99.90;;;;;;5043291;28;20249;-60
2022/04/30 12:33:00;;;;;;;10.33;8.00;;;11.70;99.90;;;;;;5042829;28;20434;-61
2022/04/30 12:35:30;;;;;;;12.37;8.00;;;11.60;99.90;;;;;;5042688;28;20429;-60
2022/04/30 12:38:10;;;;;;;9.33;7.87;;;11.50;99.90;;;;;;5040364;28;20441;-60
2022/04/30 12:40:44;;;;;;;18.20;14.30;;;11.50;99.90;;;;;;5043901;28;20993;-61
2022/04/30 12:43:10;;;;;;;14.10;9.97;;;11.50;99.90;;;;;;5036408;28;20438;-61
2022/04/30 12:45:39;;;;;;;11.37;10.17;;;11.40;99.90;;;;;;5041917;28;20440;-61
2022/04/30 12:48:05;;;;;;;9.83;7.57;;;11.40;99.90;;;;;;5041147;28;20464;-61
2022/04/30 12:50:32;;;;;;;8.47;6.33;;;11.40;99.90;;;;;;5044792;28;20560;-60
2022/04/30 12:52:59;;;;;;;6.17;5.57;;;11.30;99.90;;;;;;5031033;28;20435;-60
2022/04/30 12:55:25;;;;;;;8.30;6.67;;;11.30;99.90;;;;;;5040260;28;20433;-60
2022/04/30 12:57:51;;;;;;;7.93;6.17;;;11.30;99.90;;;;;;5037672;28;20487;-60
2022/04/30 13:00:18;;;;;;;6.53;5.43;;;11.40;99.90;;;;;;5040509;28;20469;-61
2022/04/30 13:02:45;;;;;;;7.50;5.10;;;11.40;99.90;;;;;;5038784;28;20717;-61
2022/04/30 13:05:12;;;;;;;7.53;6.10;;;11.50;99.90;;;;;;5031413;28;20561;-61
2022/04/30 13:07:39;;;;;;;6.97;5.60;;;11.60;99.90;;;;;;5036111;28;20446;-60
2022/04/30 13:15:35;;;;;;;8.40;6.50;;;12.10;99.90;;;;;;5034104;28;21008;-61
2022/04/30 13:18:02;;;;;;;8.23;6.47;;;12.60;99.90;;;;;;5031854;28;20437;-60
2022/04/30 13:20:28;;;;;;;8.23;6.60;;;13.20;99.90;;;;;;5045533;28;20257;-60
2022/04/30 13:22:56;;;;;;;7.63;6.30;;;13.60;99.90;;;;;;5049398;28;20437;-60
2022/04/30 13:25:23;;;;;;;11.03;6.70;;;14.00;97.30;;;;;;5038100;28;20434;-60
2022/04/30 13:27:49;;;;;;;7.70;6.10;;;14.10;98.60;;;;;;5037537;28;20516;-60
2022/04/30 13:30:15;;;;;;;9.77;6.90;;;14.30;97.40;;;;;;5039111;28;20467;-59